Webcam

2020/07/09 19:50 EBBR 091950Z 31005KT 9999 FEW045 20/15 Q1012 NOSIG

Webcam

--- Refresh now ---